JeSS Newton — WDA2941 — position and weather

sailwx.info

Track history (hours):
 
Tides and Currents Weather Stations Pressure Air Temp Water Temp Dewpoint Dewpoint Depression Visibility Wind Speed Wind Dir Waves Ship Positions

JeSS Newton

Owner: G & H Towing Company, Galveston, TX. More information available from US FCC via Universal Licensing System and Coast Guard Vessel Documentation Center.

Last reported at 2017-Sep-09 08:06 UTC. Time now 2017-Sep-19 13:42 UTC.
Position N 29°33' W 094°54'.
Warning: this ship's position is 10 days out of date.

Length 30 m; draft 5 m.

Type: Tug. MMSI: 366792940.

Date/timePositionNaut miles runAvg speedWind from/ knotsBaromVisibWave heightAir tempDewpointWater temp
2017-Sep-09 08:06N 29°33' W 094°54'110.4
2017-Sep-09 08:00N 29°34' W 094°55'510.2
2017-Sep-09 07:30N 29°38' W 094°58'4 8.8
2017-Sep-09 07:00N 29°42' W 095°01'4 7.6
2017-Sep-09 06:29N 29°45' W 095°04'4 6.4
2017-Sep-09 05:53N 29°44' W 095°08'2 3.1
2017-Sep-09 05:11N 29°45' W 095°11'0 0.0
2017-Sep-09 04:59N 29°45' W 095°11'0 0.0
2017-Sep-09 03:48N 29°45' W 095°11'0 0.1
2017-Sep-09 03:22N 29°45' W 095°11'3 6.9
2017-Sep-09 02:57N 29°44' W 095°07'1 1.7
2017-Sep-09 02:28N 29°45' W 095°07'1 1.8
2017-Sep-09 01:52N 29°45' W 095°06'1 0.7
2017-Sep-09 00:04N 29°45' W 095°07'1 6.1
2017-Sep-08 23:56N 29°44' W 095°07'0 0.2
2017-Sep-08 23:30N 29°44' W 095°07'1 0.5
2017-Sep-08 21:43N 29°44' W 095°07'0 0.0
2017-Sep-08 19:32N 29°45' W 095°07'0 1.3
2017-Sep-08 19:30N 29°44' W 095°07'2 1.5
2017-Sep-08 18:26N 29°46' W 095°05'3 6.0
2017-Sep-08 18:00N 29°44' W 095°03'3 6.3
2017-Sep-08 17:29N 29°42' W 095°00'4 8.9
2017-Sep-08 17:00N 29°38' W 094°58'3 6.7
2017-Sep-08 16:30N 29°37' W 095°01'0 0.4
2017-Sep-08 16:00N 29°37' W 095°01'3 6.5
2017-Sep-08 15:31N 29°37' W 094°57'4 8.4
2017-Sep-08 15:00N 29°41' W 094°59'4 7.3
2017-Sep-08 14:24N 29°44' W 095°03'3 2.1
2017-Sep-08 12:47N 29°44' W 095°07'0 0.1
2017-Sep-08 12:00N 29°44' W 095°07'1 1.1
2017-Sep-08 11:30N 29°44' W 095°07'2 3.8
2017-Sep-08 10:52N 29°45' W 095°10'0 0.0
2017-Sep-08 05:39N 29°45' W 095°10'0 1.5
2017-Sep-08 05:28N 29°45' W 095°10'0 0.4
2017-Sep-08 04:48N 29°45' W 095°11'3 0.5
2017-Sep-07 22:48N 29°44' W 095°13'1 0.1
2017-Sep-07 07:31N 29°44' W 095°12'0 1.0
2017-Sep-07 07:30N 29°44' W 095°12'1 1.2
2017-Sep-07 06:23N 29°43' W 095°14'1 1.9
2017-Sep-07 05:58N 29°43' W 095°14'4 0.2
2017-Sep-06 11:48N 29°45' W 095°10'0 0.3
2017-Sep-06 10:17N 29°45' W 095°10'0 0.4
2017-Sep-06 10:01N 29°45' W 095°10'0 0.1
2017-Sep-06 09:31N 29°45' W 095°10'1 1.0
2017-Sep-06 09:00N 29°45' W 095°10'1 1.9
2017-Sep-06 08:21N 29°44' W 095°09'0 0.2
2017-Sep-06 06:50N 29°44' W 095°09'2 4.3
2017-Sep-06 06:29N 29°44' W 095°07'0 0.1
2017-Sep-06 03:25N 29°44' W 095°07'0 0.0
2017-Sep-05 22:59N 29°44' W 095°07'2 1.3
2017-Sep-05 21:21N 29°46' W 095°05'2 6.0
2017-Sep-05 21:00N 29°44' W 095°07'0 0.0
2017-Sep-05 20:29N 29°44' W 095°07'0 0.0
2017-Sep-05 19:56N 29°44' W 095°07'0 0.0
2017-Sep-05 19:23N 29°44' W 095°07'0 0.0
2017-Sep-05 18:58N 29°44' W 095°07'0 0.0
2017-Sep-05 18:29N 29°44' W 095°07'2 3.4
2017-Sep-05 17:59N 29°44' W 095°09'2 0.3
2017-Sep-05 08:33N 29°45' W 095°11'1 6.6
2017-Sep-05 08:28N 29°45' W 095°11'3 6.6
2017-Sep-05 07:58N 29°44' W 095°07'0 0.2
2017-Sep-05 06:40N 29°44' W 095°07'1 3.9
2017-Sep-05 06:30N 29°45' W 095°06'0 0.0
2017-Sep-05 06:00N 29°45' W 095°06'0 0.8
2017-Sep-05 05:30N 29°45' W 095°06'1 0.9
2017-Sep-05 04:46N 29°45' W 095°07'0 0.0
2017-Sep-05 04:30N 29°45' W 095°07'0 0.0
2017-Sep-05 03:56N 29°45' W 095°07'0 0.0
2017-Sep-05 03:30N 29°45' W 095°07'0 0.0
2017-Sep-05 02:58N 29°45' W 095°07'1 1.6
2017-Sep-05 02:29N 29°45' W 095°06'1 1.6
2017-Sep-05 01:38N 29°46' W 095°05'1 0.6
2017-Sep-05 00:04N 29°45' W 095°06'0 3.9
2017-Sep-04 23:59N 29°46' W 095°05'1 2.7
2017-Sep-04 23:26N 29°45' W 095°07'0 0.0
2017-Sep-03 23:58N 29°45' W 095°07'0 0.0
2017-Sep-03 23:19N 29°45' W 095°07'0 0.0
2017-Sep-03 22:58N 29°45' W 095°07'0 0.0
2017-Sep-03 21:51N 29°45' W 095°07'0 0.0
2017-Sep-03 21:09N 29°45' W 095°07'0 0.0
2017-Sep-03 20:57N 29°45' W 095°07'0 0.0
2017-Sep-03 20:12N 29°45' W 095°07'0 0.0
2017-Sep-03 19:51N 29°45' W 095°07'0 0.0
2017-Sep-03 18:03N 29°45' W 095°07'0 0.0
2017-Sep-03 17:57N 29°45' W 095°07'0 0.0
2017-Sep-03 15:09N 29°45' W 095°07'0 0.0
2017-Sep-03 14:48N 29°45' W 095°07'0 0.0
2017-Sep-03 14:00N 29°45' W 095°07'0 0.0
2017-Sep-03 13:21N 29°45' W 095°07'0 0.0
2017-Sep-03 12:54N 29°45' W 095°07'0 0.0
2017-Sep-03 12:24N 29°45' W 095°07'0 0.0
2017-Sep-03 11:54N 29°45' W 095°07'0 0.0
2017-Sep-03 11:30N 29°45' W 095°07'0 0.0
2017-Sep-03 10:48N 29°45' W 095°07'0 0.0
2017-Sep-03 10:29N 29°45' W 095°07'0 0.0
2017-Sep-03 09:59N 29°45' W 095°07'0 0.0
2017-Sep-03 07:47N 29°45' W 095°07'0 0.0
2017-Sep-03 07:20N 29°45' W 095°07'0 0.0
2017-Sep-03 06:35N 29°45' W 095°07'0 0.0
2017-Sep-03 06:26N 29°45' W 095°07'0 0.0
2017-Sep-03 05:59N 29°45' W 095°07'0 0.0
2017-Sep-03 05:26N 29°45' W 095°07'0 0.0
2017-Sep-03 04:44N 29°45' W 095°07'0 0.0
2017-Sep-03 04:17N 29°45' W 095°07'0 0.0
2017-Sep-03 03:44N 29°45' W 095°07'0 0.0
2017-Sep-03 03:17N 29°45' W 095°07'0 0.0
2017-Sep-03 02:47N 29°45' W 095°07'0 0.0
2017-Sep-03 02:26N 29°45' W 095°07'0 0.0
2017-Sep-03 01:53N 29°45' W 095°07'0 0.0
2017-Sep-03 01:29N 29°45' W 095°07'0 0.0
2017-Sep-02 23:17N 29°45' W 095°07'0 0.0
2017-Sep-02 22:47N 29°45' W 095°07'1 4.2
2017-Sep-02 22:29N 29°45' W 095°06'3 6.9
2017-Sep-02 21:59N 29°44' W 095°02'4 7.7
2017-Sep-02 21:30N 29°41' W 094°59'0 0.9
2017-Sep-02 21:00N 29°41' W 094°59'1 2.3
2017-Sep-02 20:30N 29°42' W 095°00'4 7.2
2017-Sep-02 20:00N 29°44' W 095°03'3 0.5
2017-Sep-02 14:34N 29°45' W 095°07'0 0.0
2017-Sep-02 14:19N 29°45' W 095°07'0 0.0
2017-Sep-02 13:58N 29°45' W 095°07'0 0.0
2017-Sep-02 13:28N 29°45' W 095°07'0 0.0
2017-Sep-02 12:58N 29°45' W 095°07'0 0.0
2017-Sep-02 12:16N 29°45' W 095°07'0 0.0
2017-Sep-02 11:46N 29°45' W 095°07'0 0.0
2017-Sep-02 11:16N 29°45' W 095°07'0 0.0
2017-Sep-02 10:52N 29°45' W 095°07'0 0.0
2017-Sep-02 10:28N 29°45' W 095°07'0 0.0
2017-Sep-02 09:58N 29°45' W 095°07'0 0.0
2017-Sep-02 09:28N 29°45' W 095°07'0 0.0
2017-Sep-02 09:01N 29°45' W 095°07'0 0.0
2017-Sep-02 08:28N 29°45' W 095°07'0 0.0
2017-Sep-02 08:00N 29°45' W 095°07'0 0.0
2017-Sep-02 07:27N 29°45' W 095°07'0 0.0
2017-Sep-02 06:57N 29°45' W 095°07'0 0.0
2017-Sep-02 06:15N 29°45' W 095°07'0 0.0
2017-Sep-02 05:54N 29°45' W 095°07'0 0.0
2017-Sep-02 05:09N 29°45' W 095°07'0 0.0
2017-Sep-02 04:57N 29°45' W 095°07'0 0.0
2017-Sep-02 01:33N 29°45' W 095°07'0 0.0
2017-Sep-02 01:21N 29°45' W 095°07'0 0.0
2017-Sep-01 23:51N 29°45' W 095°07'0 0.0
2017-Sep-01 19:33N 29°45' W 095°07'0 0.0
2017-Sep-01 17:18N 29°45' W 095°07'0 0.0
2017-Sep-01 16:48N 29°45' W 095°07'0 0.0
2017-Sep-01 15:33N 29°45' W 095°07'0 0.0
2017-Sep-01 15:21N 29°45' W 095°07'0 0.0
2017-Sep-01 13:30N 29°45' W 095°07'0 0.0
2017-Sep-01 12:48N 29°45' W 095°07'0 0.0
2017-Sep-01 09:45N 29°45' W 095°07'0 0.0
2017-Sep-01 09:27N 29°45' W 095°07'0 0.0
2017-Sep-01 09:00N 29°45' W 095°07'0 0.0
2017-Sep-01 08:30N 29°45' W 095°07'0 0.0
2017-Sep-01 07:36N 29°45' W 095°07'0 0.0
2017-Sep-01 07:30N 29°45' W 095°07'0 0.0
2017-Sep-01 07:00N 29°45' W 095°07'0 0.0
2017-Sep-01 06:15N 29°45' W 095°07'0 0.0
2017-Sep-01 06:00N 29°45' W 095°07'0 0.0
2017-Sep-01 05:30N 29°45' W 095°07'0 0.0
2017-Sep-01 05:00N 29°45' W 095°07'0 0.0
2017-Sep-01 04:27N 29°45' W 095°07'0 0.0
2017-Sep-01 03:57N 29°45' W 095°07'0 0.0
2017-Sep-01 03:30N 29°45' W 095°07'0 0.0
2017-Sep-01 03:00N 29°45' W 095°07'0 0.0
2017-Sep-01 02:30N 29°45' W 095°07'0 0.0
2017-Sep-01 02:00N 29°45' W 095°07'0 0.0
2017-Sep-01 00:30N 29°45' W 095°07'0 0.0
2017-Aug-31 23:57N 29°45' W 095°07'0 0.0
2017-Aug-31 23:17N 29°45' W 095°07'0 0.0
2017-Aug-31 22:59N 29°45' W 095°07'0 0.0
2017-Aug-31 21:56N 29°45' W 095°07'0 0.0
2017-Aug-31 21:17N 29°45' W 095°07'0 0.0
2017-Aug-31 20:47N 29°45' W 095°07'0 0.0
2017-Aug-31 20:29N 29°45' W 095°07'0 0.0
2017-Aug-31 19:59N 29°45' W 095°07'0 0.0
2017-Aug-31 19:26N 29°45' W 095°07'0 0.0
2017-Aug-31 19:00N 29°45' W 095°07'2 3.4
2017-Aug-31 18:27N 29°44' W 095°09'  
Track history (hours):
 
Tides and Currents Weather Stations Pressure Air Temp Water Temp Dewpoint Dewpoint Depression Visibility Wind Speed Wind Dir Waves Ship Positions

JeSS Newton

Owner: G & H Towing Company, Galveston, TX. More information available from US FCC via Universal Licensing System and Coast Guard Vessel Documentation Center.

Last reported at 2017-Sep-09 08:06 UTC. Time now 2017-Sep-19 13:42 UTC.
Position N 29°33' W 094°54'.
Warning: this ship's position is 10 days out of date.

Length 30 m; draft 5 m.

Type: Tug. MMSI: 366792940.

Date/timePositionNaut miles runAvg speedWind from/ knotsBaromVisibWave heightAir tempDewpointWater temp
2017-Sep-09 08:06N 29°33' W 094°54'110.4
2017-Sep-09 08:00N 29°34' W 094°55'510.2
2017-Sep-09 07:30N 29°38' W 094°58'4 8.8
2017-Sep-09 07:00N 29°42' W 095°01'4 7.6
2017-Sep-09 06:29N 29°45' W 095°04'4 6.4
2017-Sep-09 05:53N 29°44' W 095°08'2 3.1
2017-Sep-09 05:11N 29°45' W 095°11'0 0.0
2017-Sep-09 04:59N 29°45' W 095°11'0 0.0
2017-Sep-09 03:48N 29°45' W 095°11'0 0.1
2017-Sep-09 03:22N 29°45' W 095°11'3 6.9
2017-Sep-09 02:57N 29°44' W 095°07'1 1.7
2017-Sep-09 02:28N 29°45' W 095°07'1 1.8
2017-Sep-09 01:52N 29°45' W 095°06'1 0.7
2017-Sep-09 00:04N 29°45' W 095°07'1 6.1
2017-Sep-08 23:56N 29°44' W 095°07'0 0.2
2017-Sep-08 23:30N 29°44' W 095°07'1 0.5
2017-Sep-08 21:43N 29°44' W 095°07'0 0.0
2017-Sep-08 19:32N 29°45' W 095°07'0 1.3
2017-Sep-08 19:30N 29°44' W 095°07'2 1.5
2017-Sep-08 18:26N 29°46' W 095°05'3 6.0
2017-Sep-08 18:00N 29°44' W 095°03'3 6.3
2017-Sep-08 17:29N 29°42' W 095°00'4 8.9
2017-Sep-08 17:00N 29°38' W 094°58'3 6.7
2017-Sep-08 16:30N 29°37' W 095°01'0 0.4
2017-Sep-08 16:00N 29°37' W 095°01'3 6.5
2017-Sep-08 15:31N 29°37' W 094°57'4 8.4
2017-Sep-08 15:00N 29°41' W 094°59'4 7.3
2017-Sep-08 14:24N 29°44' W 095°03'3 2.1
2017-Sep-08 12:47N 29°44' W 095°07'0 0.1
2017-Sep-08 12:00N 29°44' W 095°07'1 1.1
2017-Sep-08 11:30N 29°44' W 095°07'2 3.8
2017-Sep-08 10:52N 29°45' W 095°10'0 0.0
2017-Sep-08 05:39N 29°45' W 095°10'0 1.5
2017-Sep-08 05:28N 29°45' W 095°10'0 0.4
2017-Sep-08 04:48N 29°45' W 095°11'3 0.5
2017-Sep-07 22:48N 29°44' W 095°13'1 0.1
2017-Sep-07 07:31N 29°44' W 095°12'0 1.0
2017-Sep-07 07:30N 29°44' W 095°12'1 1.2
2017-Sep-07 06:23N 29°43' W 095°14'1 1.9
2017-Sep-07 05:58N 29°43' W 095°14'4 0.2
2017-Sep-06 11:48N 29°45' W 095°10'0 0.3
2017-Sep-06 10:17N 29°45' W 095°10'0 0.4
2017-Sep-06 10:01N 29°45' W 095°10'0 0.1
2017-Sep-06 09:31N 29°45' W 095°10'1 1.0
2017-Sep-06 09:00N 29°45' W 095°10'1 1.9
2017-Sep-06 08:21N 29°44' W 095°09'0 0.2
2017-Sep-06 06:50N 29°44' W 095°09'2 4.3
2017-Sep-06 06:29N 29°44' W 095°07'0 0.1
2017-Sep-06 03:25N 29°44' W 095°07'0 0.0
2017-Sep-05 22:59N 29°44' W 095°07'2 1.3
2017-Sep-05 21:21N 29°46' W 095°05'2 6.0
2017-Sep-05 21:00N 29°44' W 095°07'0 0.0
2017-Sep-05 20:29N 29°44' W 095°07'0 0.0
2017-Sep-05 19:56N 29°44' W 095°07'0 0.0
2017-Sep-05 19:23N 29°44' W 095°07'0 0.0
2017-Sep-05 18:58N 29°44' W 095°07'0 0.0
2017-Sep-05 18:29N 29°44' W 095°07'2 3.4
2017-Sep-05 17:59N 29°44' W 095°09'2 0.3
2017-Sep-05 08:33N 29°45' W 095°11'1 6.6
2017-Sep-05 08:28N 29°45' W 095°11'3 6.6
2017-Sep-05 07:58N 29°44' W 095°07'0 0.2
2017-Sep-05 06:40N 29°44' W 095°07'1 3.9
2017-Sep-05 06:30N 29°45' W 095°06'0 0.0
2017-Sep-05 06:00N 29°45' W 095°06'0 0.8
2017-Sep-05 05:30N 29°45' W 095°06'1 0.9
2017-Sep-05 04:46N 29°45' W 095°07'0 0.0
2017-Sep-05 04:30N 29°45' W 095°07'0 0.0
2017-Sep-05 03:56N 29°45' W 095°07'0 0.0
2017-Sep-05 03:30N 29°45' W 095°07'0 0.0
2017-Sep-05 02:58N 29°45' W 095°07'1 1.6
2017-Sep-05 02:29N 29°45' W 095°06'1 1.6
2017-Sep-05 01:38N 29°46' W 095°05'1 0.6
2017-Sep-05 00:04N 29°45' W 095°06'0 3.9
2017-Sep-04 23:59N 29°46' W 095°05'1 2.7
2017-Sep-04 23:26N 29°45' W 095°07'0 0.0
2017-Sep-03 23:58N 29°45' W 095°07'0 0.0
2017-Sep-03 23:19N 29°45' W 095°07'0 0.0
2017-Sep-03 22:58N 29°45' W 095°07'0 0.0
2017-Sep-03 21:51N 29°45' W 095°07'0 0.0
2017-Sep-03 21:09N 29°45' W 095°07'0 0.0
2017-Sep-03 20:57N 29°45' W 095°07'0 0.0
2017-Sep-03 20:12N 29°45' W 095°07'0 0.0
2017-Sep-03 19:51N 29°45' W 095°07'0 0.0
2017-Sep-03 18:03N 29°45' W 095°07'0 0.0
2017-Sep-03 17:57N 29°45' W 095°07'0 0.0
2017-Sep-03 15:09N 29°45' W 095°07'0 0.0
2017-Sep-03 14:48N 29°45' W 095°07'0 0.0
2017-Sep-03 14:00N 29°45' W 095°07'0 0.0
2017-Sep-03 13:21N 29°45' W 095°07'0 0.0
2017-Sep-03 12:54N 29°45' W 095°07'0 0.0
2017-Sep-03 12:24N 29°45' W 095°07'0 0.0
2017-Sep-03 11:54N 29°45' W 095°07'0 0.0
2017-Sep-03 11:30N 29°45' W 095°07'0 0.0
2017-Sep-03 10:48N 29°45' W 095°07'0 0.0
2017-Sep-03 10:29N 29°45' W 095°07'0 0.0
2017-Sep-03 09:59N 29°45' W 095°07'0 0.0
2017-Sep-03 07:47N 29°45' W 095°07'0 0.0
2017-Sep-03 07:20N 29°45' W 095°07'0 0.0
2017-Sep-03 06:35N 29°45' W 095°07'0 0.0
2017-Sep-03 06:26N 29°45' W 095°07'0 0.0
2017-Sep-03 05:59N 29°45' W 095°07'0 0.0
2017-Sep-03 05:26N 29°45' W 095°07'0 0.0
2017-Sep-03 04:44N 29°45' W 095°07'0 0.0
2017-Sep-03 04:17N 29°45' W 095°07'0 0.0
2017-Sep-03 03:44N 29°45' W 095°07'0 0.0
2017-Sep-03 03:17N 29°45' W 095°07'0 0.0
2017-Sep-03 02:47N 29°45' W 095°07'0 0.0
2017-Sep-03 02:26N 29°45' W 095°07'0 0.0
2017-Sep-03 01:53N 29°45' W 095°07'0 0.0
2017-Sep-03 01:29N 29°45' W 095°07'0 0.0
2017-Sep-02 23:17N 29°45' W 095°07'0 0.0
2017-Sep-02 22:47N 29°45' W 095°07'1 4.2
2017-Sep-02 22:29N 29°45' W 095°06'3 6.9
2017-Sep-02 21:59N 29°44' W 095°02'4 7.7
2017-Sep-02 21:30N 29°41' W 094°59'0 0.9
2017-Sep-02 21:00N 29°41' W 094°59'1 2.3
2017-Sep-02 20:30N 29°42' W 095°00'4 7.2
2017-Sep-02 20:00N 29°44' W 095°03'3 0.5
2017-Sep-02 14:34N 29°45' W 095°07'0 0.0
2017-Sep-02 14:19N 29°45' W 095°07'0 0.0
2017-Sep-02 13:58N 29°45' W 095°07'0 0.0
2017-Sep-02 13:28N 29°45' W 095°07'0 0.0
2017-Sep-02 12:58N 29°45' W 095°07'0 0.0
2017-Sep-02 12:16N 29°45' W 095°07'0 0.0
2017-Sep-02 11:46N 29°45' W 095°07'0 0.0
2017-Sep-02 11:16N 29°45' W 095°07'0 0.0
2017-Sep-02 10:52N 29°45' W 095°07'0 0.0
2017-Sep-02 10:28N 29°45' W 095°07'0 0.0
2017-Sep-02 09:58N 29°45' W 095°07'0 0.0
2017-Sep-02 09:28N 29°45' W 095°07'0 0.0
2017-Sep-02 09:01N 29°45' W 095°07'0 0.0
2017-Sep-02 08:28N 29°45' W 095°07'0 0.0
2017-Sep-02 08:00N 29°45' W 095°07'0 0.0
2017-Sep-02 07:27N 29°45' W 095°07'0 0.0
2017-Sep-02 06:57N 29°45' W 095°07'0 0.0
2017-Sep-02 06:15N 29°45' W 095°07'0 0.0
2017-Sep-02 05:54N 29°45' W 095°07'0 0.0
2017-Sep-02 05:09N 29°45' W 095°07'0 0.0
2017-Sep-02 04:57N 29°45' W 095°07'0 0.0
2017-Sep-02 01:33N 29°45' W 095°07'0 0.0
2017-Sep-02 01:21N 29°45' W 095°07'0 0.0
2017-Sep-01 23:51N 29°45' W 095°07'0 0.0
2017-Sep-01 19:33N 29°45' W 095°07'0 0.0
2017-Sep-01 17:18N 29°45' W 095°07'0 0.0
2017-Sep-01 16:48N 29°45' W 095°07'0 0.0
2017-Sep-01 15:33N 29°45' W 095°07'0 0.0
2017-Sep-01 15:21N 29°45' W 095°07'0 0.0
2017-Sep-01 13:30N 29°45' W 095°07'0 0.0
2017-Sep-01 12:48N 29°45' W 095°07'0 0.0
2017-Sep-01 09:45N 29°45' W 095°07'0 0.0
2017-Sep-01 09:27N 29°45' W 095°07'0 0.0
2017-Sep-01 09:00N 29°45' W 095°07'0 0.0
2017-Sep-01 08:30N 29°45' W 095°07'0 0.0
2017-Sep-01 07:36N 29°45' W 095°07'0 0.0
2017-Sep-01 07:30N 29°45' W 095°07'0 0.0
2017-Sep-01 07:00N 29°45' W 095°07'0 0.0
2017-Sep-01 06:15N 29°45' W 095°07'0 0.0
2017-Sep-01 06:00N 29°45' W 095°07'0 0.0
2017-Sep-01 05:30N 29°45' W 095°07'0 0.0
2017-Sep-01 05:00N 29°45' W 095°07'0 0.0
2017-Sep-01 04:27N 29°45' W 095°07'0 0.0
2017-Sep-01 03:57N 29°45' W 095°07'0 0.0
2017-Sep-01 03:30N 29°45' W 095°07'0 0.0
2017-Sep-01 03:00N 29°45' W 095°07'0 0.0
2017-Sep-01 02:30N 29°45' W 095°07'0 0.0
2017-Sep-01 02:00N 29°45' W 095°07'0 0.0
2017-Sep-01 00:30N 29°45' W 095°07'0 0.0
2017-Aug-31 23:57N 29°45' W 095°07'0 0.0
2017-Aug-31 23:17N 29°45' W 095°07'0 0.0
2017-Aug-31 22:59N 29°45' W 095°07'0 0.0
2017-Aug-31 21:56N 29°45' W 095°07'0 0.0
2017-Aug-31 21:17N 29°45' W 095°07'0 0.0
2017-Aug-31 20:47N 29°45' W 095°07'0 0.0
2017-Aug-31 20:29N 29°45' W 095°07'0 0.0
2017-Aug-31 19:59N 29°45' W 095°07'0 0.0
2017-Aug-31 19:26N 29°45' W 095°07'0 0.0
2017-Aug-31 19:00N 29°45' W 095°07'2 3.4
2017-Aug-31 18:27N 29°44' W 095°09'  

Dump ship's entire track history